createdAt,value
2022-10-12T05:32:40.134Z,6.29
2022-10-12T05:38:01.540Z,6.33
2022-10-12T05:43:22.563Z,6.42
2022-10-12T05:48:43.289Z,6.46
2022-10-12T05:54:04.786Z,6.54
2022-10-12T05:59:25.596Z,6.55
2022-10-12T06:04:46.407Z,6.45
2022-10-12T06:10:08.191Z,6.26
2022-10-12T06:15:29.252Z,6.48
2022-10-12T06:21:04.007Z,6.51
2022-10-12T06:26:34.873Z,6.53
2022-10-12T06:31:55.678Z,6.65
2022-10-12T06:37:44.550Z,6.97
2022-10-12T06:43:02.526Z,7.20
2022-10-12T06:48:23.474Z,7.61
2022-10-12T06:53:44.324Z,7.99
2022-10-12T06:59:06.002Z,8.26
2022-10-12T07:04:26.489Z,8.64
2022-10-12T07:09:48.986Z,9.14
2022-10-12T07:15:10.082Z,9.62
2022-10-12T07:20:30.937Z,10.46
2022-10-12T07:25:52.630Z,11.08
2022-10-12T07:31:14.010Z,11.67
2022-10-12T07:36:57.624Z,12.31
2022-10-12T07:42:19.092Z,13.04
2022-10-12T07:47:41.038Z,13.46
2022-10-12T07:53:02.223Z,13.86
2022-10-12T07:58:22.870Z,14.22
2022-10-12T08:03:43.874Z,14.66
2022-10-12T08:09:05.510Z,15.00
2022-10-12T08:14:26.685Z,15.63
2022-10-12T08:19:47.576Z,16.39
2022-10-12T08:25:08.598Z,17.32
2022-10-12T08:30:29.763Z,18.14
2022-10-12T08:35:50.512Z,19.39
2022-10-12T08:41:29.031Z,22.64
2022-10-12T08:46:55.805Z,35.09
2022-10-12T08:52:38.125Z,41.83
2022-10-12T08:57:59.093Z,44.71
2022-10-12T09:03:58.273Z,46.05
2022-10-12T09:09:58.422Z,46.28
2022-10-12T09:15:26.788Z,46.27
2022-10-12T09:20:49.867Z,44.65
2022-10-12T09:26:21.477Z,45.77
2022-10-12T09:32:00.802Z,40.35
2022-10-12T09:37:24.724Z,35.32
2022-10-12T09:42:47.090Z,29.30
2022-10-12T09:48:23.956Z,26.06
2022-10-12T09:53:49.976Z,24.30
2022-10-12T09:59:28.156Z,23.08
2022-10-12T10:04:51.167Z,22.57
2022-10-12T10:10:29.708Z,22.00
2022-10-12T10:16:01.827Z,21.72
2022-10-12T10:21:35.322Z,22.43
2022-10-12T10:27:03.494Z,21.81
2022-10-12T10:32:28.980Z,21.87
2022-10-12T10:37:51.535Z,21.22
2022-10-12T10:43:32.202Z,20.57
2022-10-12T10:48:58.530Z,20.74
2022-10-12T10:54:22.273Z,20.62
2022-10-12T10:59:55.435Z,21.38
2022-10-12T11:05:32.336Z,20.35
2022-10-12T11:10:59.273Z,20.36
2022-10-12T11:16:33.642Z,20.94
2022-10-12T11:21:59.249Z,19.98
2022-10-12T11:27:40.382Z,19.92
2022-10-12T11:33:03.570Z,20.11
2022-10-12T11:38:30.413Z,20.73
2022-10-12T11:44:17.684Z,21.13
2022-10-12T11:49:58.626Z,21.58
2022-10-12T11:55:25.417Z,21.90
2022-10-12T12:01:07.738Z,21.92
2022-10-12T12:06:28.791Z,21.78
2022-10-12T12:11:49.625Z,21.85
2022-10-12T12:17:19.449Z,20.74
2022-10-12T12:22:53.190Z,20.82
2022-10-12T12:28:24.271Z,21.40
2022-10-12T12:33:48.550Z,21.57
2022-10-12T12:39:26.376Z,21.72
2022-10-12T12:44:47.358Z,21.57
2022-10-12T12:50:31.583Z,21.90
2022-10-12T12:56:04.676Z,21.81
2022-10-12T13:01:39.064Z,21.45
2022-10-12T13:07:33.861Z,21.48
2022-10-12T13:13:44.086Z,21.04
2022-10-12T13:19:11.145Z,19.99
2022-10-12T13:24:38.607Z,20.61
2022-10-12T13:30:06.786Z,21.12
2022-10-12T13:35:41.370Z,21.32
2022-10-12T13:41:04.872Z,21.23
2022-10-12T13:46:46.247Z,19.97
2022-10-12T13:52:13.019Z,19.16
2022-10-12T13:57:41.306Z,18.56
2022-10-12T14:03:08.567Z,18.11
2022-10-12T14:08:31.406Z,17.62
2022-10-12T14:13:53.091Z,17.28
2022-10-12T14:19:19.249Z,16.97
2022-10-12T14:24:40.473Z,16.90
2022-10-12T14:30:15.979Z,16.69
2022-10-12T14:35:38.871Z,16.74
2022-10-12T14:41:38.539Z,16.78
2022-10-12T14:47:16.754Z,16.70
2022-10-12T14:52:42.654Z,16.76
2022-10-12T14:58:08.127Z,16.72
2022-10-12T15:03:30.006Z,16.73
2022-10-12T15:08:52.481Z,16.69
2022-10-12T15:14:14.443Z,16.69
2022-10-12T15:19:35.364Z,16.56
2022-10-12T15:24:56.285Z,16.39
2022-10-12T15:30:17.455Z,16.22
2022-10-12T15:35:39.597Z,16.02
2022-10-12T15:41:00.540Z,15.76
2022-10-12T15:46:21.259Z,15.38
2022-10-12T15:51:47.303Z,15.00
2022-10-12T15:57:09.457Z,14.67
2022-10-12T16:02:30.500Z,14.43
2022-10-12T16:07:51.868Z,14.12
2022-10-12T16:13:13.837Z,13.92
2022-10-12T16:18:34.840Z,13.62
2022-10-12T16:23:55.618Z,13.30
2022-10-12T16:29:16.475Z,13.04
2022-10-12T16:34:37.170Z,12.74
2022-10-12T16:39:58.087Z,12.61
2022-10-12T16:45:19.288Z,12.53
2022-10-12T16:50:40.855Z,12.27
2022-10-12T16:56:02.365Z,12.18
2022-10-12T17:01:23.556Z,12.06
2022-10-12T17:06:44.255Z,11.90
2022-10-12T17:12:05.065Z,11.84
2022-10-12T17:17:25.875Z,11.62
2022-10-12T17:22:46.731Z,11.51
2022-10-12T17:28:07.522Z,11.39
2022-10-12T17:33:28.303Z,11.26
2022-10-12T17:38:49.257Z,11.14
2022-10-12T17:44:13.412Z,11.02
2022-10-12T17:49:34.531Z,10.95
2022-10-12T17:54:55.411Z,10.80
2022-10-12T18:00:16.749Z,10.64
2022-10-12T18:05:37.721Z,10.50
2022-10-12T18:11:02.360Z,10.50
2022-10-12T18:16:25.703Z,10.41
2022-10-12T18:21:46.713Z,10.28
2022-10-12T18:27:07.599Z,10.30
2022-10-12T18:32:28.328Z,10.14
2022-10-12T18:37:49.194Z,9.96
2022-10-12T18:43:10.479Z,10.02
2022-10-12T18:48:31.333Z,10.00
2022-10-12T18:53:52.261Z,9.84
2022-10-12T18:59:13.352Z,9.73
2022-10-12T19:04:34.392Z,9.64
2022-10-12T19:09:55.293Z,9.61
2022-10-12T19:15:16.430Z,9.58
2022-10-12T19:20:38.256Z,9.49
2022-10-12T19:26:04.250Z,9.46
2022-10-12T19:31:31.040Z,9.43
2022-10-12T19:36:51.893Z,9.27
2022-10-12T19:42:12.861Z,9.22
2022-10-12T19:47:34.819Z,9.23
2022-10-12T19:52:55.784Z,9.31
2022-10-12T19:58:16.891Z,9.29
2022-10-12T20:03:38.300Z,9.14
2022-10-12T20:09:01.971Z,8.95
2022-10-12T20:14:23.359Z,8.86
2022-10-12T20:19:44.300Z,8.83
2022-10-12T20:25:09.421Z,8.89
2022-10-12T20:30:30.560Z,8.75
2022-10-12T20:35:51.439Z,8.69
2022-10-12T20:41:13.801Z,8.61
2022-10-12T20:46:34.845Z,8.59
2022-10-12T20:51:55.684Z,8.60
2022-10-12T20:57:16.234Z,8.59
2022-10-12T21:02:40.384Z,8.40
2022-10-12T21:08:01.201Z,8.30
2022-10-12T21:13:22.070Z,8.36
2022-10-12T21:18:43.051Z,8.34
2022-10-12T21:24:04.361Z,8.17
2022-10-12T21:29:25.053Z,7.92
2022-10-12T21:34:47.502Z,7.82
2022-10-12T21:40:09.944Z,7.92
2022-10-12T21:45:31.053Z,7.83
2022-10-12T21:50:56.158Z,7.78
2022-10-12T21:56:16.998Z,7.76
